createdAt,value
2022-08-16T00:01:24.744Z,100.00
2022-08-16T00:03:55.174Z,100.00
2022-08-16T00:06:23.374Z,100.00
2022-08-16T00:08:52.394Z,100.00
2022-08-16T00:11:21.354Z,100.00
2022-08-16T00:13:53.757Z,100.00
2022-08-16T00:17:05.885Z,100.00
2022-08-16T00:19:15.847Z,100.00
2022-08-16T00:21:44.865Z,100.00
2022-08-16T00:24:13.868Z,100.00
2022-08-16T00:27:01.268Z,100.00
2022-08-16T00:29:30.472Z,100.00
2022-08-16T00:32:01.144Z,100.00
2022-08-16T00:34:43.229Z,100.00
2022-08-16T00:37:17.109Z,100.00
2022-08-16T00:39:57.566Z,100.00
2022-08-16T00:42:32.331Z,100.00
2022-08-16T00:45:09.684Z,100.00
2022-08-16T00:47:49.519Z,100.00
2022-08-16T00:50:36.346Z,100.00
2022-08-16T00:53:07.780Z,100.00
2022-08-16T00:55:40.207Z,100.00
2022-08-16T00:58:12.976Z,100.00
2022-08-16T01:00:54.121Z,100.00
2022-08-16T01:03:31.588Z,100.00
2022-08-16T01:06:39.541Z,100.00
2022-08-16T01:08:56.100Z,100.00
2022-08-16T01:11:30.632Z,100.00
2022-08-16T01:14:11.105Z,100.00
2022-08-16T01:16:43.123Z,100.00
2022-08-16T01:19:23.203Z,100.00
2022-08-16T01:21:54.697Z,100.00
2022-08-16T01:24:51.430Z,100.00
2022-08-16T01:27:19.573Z,100.00
2022-08-16T01:29:59.789Z,100.00
2022-08-16T01:32:34.158Z,100.00
2022-08-16T01:35:08.459Z,100.00
2022-08-16T01:37:54.192Z,100.00
2022-08-16T01:40:29.749Z,100.00
2022-08-16T01:42:58.966Z,100.00
2022-08-16T01:45:40.538Z,100.00
2022-08-16T01:48:19.719Z,100.00
2022-08-16T01:51:09.519Z,100.00
2022-08-16T01:53:41.323Z,100.00
2022-08-16T01:56:27.724Z,100.00
2022-08-16T01:58:58.932Z,100.00
2022-08-16T02:01:29.465Z,100.00
2022-08-16T02:04:10.886Z,100.00
2022-08-16T02:06:46.656Z,100.00
2022-08-16T02:09:23.917Z,100.00
2022-08-16T02:11:59.495Z,100.00
2022-08-16T02:14:49.325Z,100.00
2022-08-16T02:17:19.321Z,100.00
2022-08-16T02:19:58.922Z,100.00
2022-08-16T02:22:34.687Z,100.00
2022-08-16T02:25:14.883Z,100.00
2022-08-16T02:27:50.677Z,100.00
2022-08-16T02:30:37.246Z,100.00
2022-08-16T02:33:12.934Z,100.00
2022-08-16T02:35:53.783Z,100.00
2022-08-16T02:38:26.982Z,100.00
2022-08-16T02:40:56.639Z,100.00
2022-08-16T02:43:27.584Z,100.00
2022-08-16T02:45:59.247Z,100.00
2022-08-16T02:48:31.192Z,100.00
2022-08-16T02:51:10.551Z,100.00
2022-08-16T02:53:46.840Z,100.00
2022-08-16T02:56:17.956Z,100.00
2022-08-16T02:58:50.175Z,100.00
2022-08-16T03:01:24.096Z,100.00
2022-08-16T03:04:24.736Z,100.00
2022-08-16T03:06:43.426Z,100.00
2022-08-16T03:09:25.091Z,100.00
2022-08-16T03:11:55.169Z,100.00
2022-08-16T03:14:24.516Z,100.00
2022-08-16T03:17:00.213Z,100.00
2022-08-16T03:19:48.446Z,100.00
2022-08-16T03:22:28.144Z,100.00
2022-08-16T03:25:02.186Z,100.00
2022-08-16T03:27:33.786Z,100.00
2022-08-16T03:30:16.082Z,100.00
2022-08-16T03:32:51.615Z,100.00
2022-08-16T03:35:24.076Z,100.00
2022-08-16T03:38:33.009Z,100.00
2022-08-16T03:40:57.775Z,100.00
2022-08-16T03:43:51.603Z,100.00
2022-08-16T03:46:44.424Z,100.00
2022-08-16T03:49:10.826Z,100.00
2022-08-16T03:51:42.885Z,100.00
2022-08-16T03:54:15.915Z,100.00
2022-08-16T03:56:57.219Z,100.00
2022-08-16T03:59:30.292Z,100.00
2022-08-16T04:02:22.393Z,100.00
2022-08-16T04:04:54.149Z,100.00
2022-08-16T04:07:23.243Z,100.00
2022-08-16T04:09:53.739Z,100.00
2022-08-16T04:12:54.778Z,100.00
2022-08-16T04:15:16.860Z,100.00
2022-08-16T04:17:56.197Z,100.00
2022-08-16T04:20:31.317Z,100.00
2022-08-16T04:23:04.691Z,100.00
2022-08-16T04:25:35.074Z,100.00
2022-08-16T04:28:54.472Z,100.00
2022-08-16T04:30:53.131Z,100.00
2022-08-16T04:33:27.077Z,100.00
2022-08-16T04:35:58.359Z,100.00
2022-08-16T04:38:27.593Z,100.00
2022-08-16T04:40:58.525Z,100.00
2022-08-16T04:43:26.957Z,100.00
2022-08-16T04:46:00.332Z,100.00
2022-08-16T04:48:34.267Z,100.00
2022-08-16T04:51:12.008Z,100.00
2022-08-16T04:53:45.884Z,100.00
2022-08-16T04:56:16.505Z,100.00
2022-08-16T04:58:46.822Z,100.00
2022-08-16T05:01:19.074Z,99.27
2022-08-16T05:03:59.716Z,98.68
2022-08-16T05:06:45.548Z,97.99
2022-08-16T05:09:39.419Z,97.02
2022-08-16T05:12:18.189Z,95.78
2022-08-16T05:15:02.414Z,94.00
2022-08-16T05:17:34.566Z,92.45
2022-08-16T05:20:38.858Z,91.31
2022-08-16T05:22:59.928Z,89.51
2022-08-16T05:25:41.257Z,87.69
2022-08-16T05:28:18.689Z,87.40
2022-08-16T05:30:52.606Z,86.25
2022-08-16T05:33:25.903Z,84.11
2022-08-16T05:35:57.915Z,83.91
2022-08-16T05:38:38.802Z,83.81
2022-08-16T05:41:11.037Z,83.07
2022-08-16T05:43:46.321Z,82.43
2022-08-16T05:46:30.502Z,82.46
2022-08-16T05:49:09.024Z,82.09
2022-08-16T05:51:41.714Z,82.35
2022-08-16T05:54:17.567Z,81.91
2022-08-16T05:56:57.059Z,81.80
2022-08-16T05:59:27.382Z,81.77
2022-08-16T06:01:56.591Z,80.86
2022-08-16T06:04:36.570Z,78.68
2022-08-16T06:07:24.587Z,78.12
2022-08-16T06:10:32.301Z,77.03
2022-08-16T06:13:02.622Z,76.27
2022-08-16T06:15:30.943Z,75.11
2022-08-16T06:18:00.595Z,73.23
2022-08-16T06:20:35.895Z,73.65
2022-08-16T06:23:18.231Z,72.63
2022-08-16T06:25:57.192Z,70.71
2022-08-16T06:28:35.905Z,69.24
2022-08-16T06:31:06.874Z,68.56
2022-08-16T06:33:42.373Z,67.94
2022-08-16T06:36:14.730Z,66.82
2022-08-16T06:38:55.673Z,65.58
2022-08-16T06:41:43.217Z,64.85
2022-08-16T06:44:24.385Z,64.93
2022-08-16T06:46:57.157Z,64.53
2022-08-16T06:49:25.283Z,63.56
2022-08-16T06:51:53.138Z,62.25
2022-08-16T06:54:34.673Z,60.72
2022-08-16T06:57:03.214Z,59.54
2022-08-16T06:59:52.101Z,59.39
2022-08-16T07:02:33.400Z,58.88
2022-08-16T07:05:03.608Z,58.47
2022-08-16T07:07:50.873Z,57.65
2022-08-16T07:10:26.810Z,56.36
2022-08-16T07:13:04.540Z,55.95
2022-08-16T07:15:50.062Z,53.37
2022-08-16T07:18:21.790Z,52.51
2022-08-16T07:20:53.960Z,51.55
2022-08-16T07:23:38.947Z,51.75
2022-08-16T07:26:24.374Z,51.98
2022-08-16T07:28:53.352Z,52.18
2022-08-16T07:31:21.999Z,53.02
2022-08-16T07:33:53.743Z,52.91
2022-08-16T07:36:34.280Z,52.27
2022-08-16T07:39:03.808Z,50.49
2022-08-16T07:41:36.433Z,49.95
2022-08-16T07:44:16.610Z,46.45
2022-08-16T07:46:47.868Z,43.28
2022-08-16T07:49:24.731Z,41.89
2022-08-16T07:51:54.386Z,40.08
2022-08-16T07:54:32.232Z,38.39
2022-08-16T07:57:11.296Z,36.30
2022-08-16T07:59:45.598Z,34.76
2022-08-16T08:02:19.665Z,33.59
2022-08-16T08:04:50.206Z,32.09
2022-08-16T08:07:18.453Z,30.42
2022-08-16T08:09:50.156Z,28.58
2022-08-16T08:12:32.336Z,27.16
2022-08-16T08:15:09.604Z,25.01
2022-08-16T08:17:42.783Z,26.34
2022-08-16T08:20:20.644Z,28.04
2022-08-16T08:23:01.044Z,28.25
2022-08-16T08:25:53.604Z,29.93
2022-08-16T08:28:25.628Z,32.00
2022-08-16T08:31:02.799Z,33.71
2022-08-16T08:33:35.729Z,34.96
2022-08-16T08:36:08.063Z,36.42
2022-08-16T08:38:45.009Z,37.43
2022-08-16T08:41:18.584Z,38.94
2022-08-16T08:43:50.789Z,39.93
2022-08-16T08:46:22.014Z,40.76
2022-08-16T08:48:59.843Z,42.34
2022-08-16T08:51:31.861Z,44.19
2022-08-16T08:54:07.015Z,45.36
2022-08-16T08:56:45.845Z,46.19
2022-08-16T08:59:40.906Z,47.09
2022-08-16T09:02:14.797Z,47.89
2022-08-16T09:04:52.237Z,48.38
2022-08-16T09:07:23.806Z,49.52
2022-08-16T09:10:06.826Z,49.71
2022-08-16T09:12:46.580Z,49.15
2022-08-16T09:15:23.830Z,48.64
2022-08-16T09:17:55.654Z,49.03
2022-08-16T09:20:29.408Z,49.75
2022-08-16T09:22:59.081Z,49.48
2022-08-16T09:25:33.804Z,49.66
2022-08-16T09:28:09.377Z,49.74
2022-08-16T09:30:51.204Z,49.86
2022-08-16T09:33:20.029Z,51.24
2022-08-16T09:35:53.075Z,51.26
2022-08-16T09:38:31.803Z,51.75
2022-08-16T09:41:06.088Z,52.18
2022-08-16T09:43:59.554Z,50.96
2022-08-16T09:46:45.970Z,51.41
2022-08-16T09:49:20.038Z,51.38
2022-08-16T09:51:55.622Z,51.71
2022-08-16T09:54:32.566Z,49.99
2022-08-16T09:57:01.432Z,49.26
2022-08-16T09:59:30.739Z,47.95
2022-08-16T10:01:59.758Z,47.21
2022-08-16T10:04:31.600Z,47.96
2022-08-16T10:07:15.098Z,48.62
2022-08-16T10:09:53.886Z,48.54
2022-08-16T10:12:44.454Z,48.83
2022-08-16T10:15:21.085Z,49.83
2022-08-16T10:18:01.187Z,50.85
2022-08-16T10:20:34.892Z,51.92
2022-08-16T10:23:17.224Z,52.17
2022-08-16T10:27:16.723Z,52.25
2022-08-16T10:28:39.415Z,53.58
2022-08-16T10:31:11.715Z,53.68
2022-08-16T10:33:42.797Z,54.69
2022-08-16T10:36:38.119Z,54.39
2022-08-16T10:39:03.543Z,54.82
2022-08-16T10:41:33.448Z,55.08
2022-08-16T10:44:01.730Z,54.79
2022-08-16T10:46:40.097Z,54.75
2022-08-16T10:49:12.458Z,54.82
2022-08-16T10:52:02.587Z,54.61
2022-08-16T10:54:32.220Z,54.36
2022-08-16T10:57:04.353Z,54.47
2022-08-16T10:59:44.159Z,54.40
2022-08-16T11:02:58.779Z,54.48
2022-08-16T11:05:14.070Z,55.18
2022-08-16T11:07:55.198Z,55.31
2022-08-16T11:13:57.523Z,56.70
2022-08-16T11:16:26.295Z,58.01
2022-08-16T11:19:05.971Z,59.87
2022-08-16T11:24:40.139Z,61.79
2022-08-16T11:27:19.673Z,62.52
2022-08-16T11:29:52.890Z,62.40
2022-08-16T11:32:29.863Z,63.31
2022-08-16T11:35:10.952Z,63.70
2022-08-16T11:40:40.786Z,64.75
2022-08-16T11:43:17.100Z,65.54
2022-08-16T11:45:53.808Z,65.92
2022-08-16T11:48:24.862Z,67.20
2022-08-16T11:50:54.082Z,67.78
2022-08-16T11:53:24.331Z,68.17
2022-08-16T11:55:56.062Z,68.90
2022-08-16T11:58:26.606Z,68.91
2022-08-16T12:00:57.845Z,69.51
2022-08-16T12:03:31.089Z,70.22
2022-08-16T12:06:24.929Z,71.32
2022-08-16T12:09:00.871Z,70.60
2022-08-16T12:11:31.717Z,71.10
2022-08-16T12:14:04.998Z,70.80
2022-08-16T12:16:35.677Z,70.43
2022-08-16T12:19:06.921Z,69.89
2022-08-16T12:21:59.144Z,68.18
2022-08-16T12:24:28.407Z,67.79
2022-08-16T12:26:56.944Z,67.12
2022-08-16T12:29:25.780Z,66.59
2022-08-16T12:32:00.949Z,66.97
2022-08-16T12:34:50.887Z,64.97
2022-08-16T12:37:24.378Z,62.81
2022-08-16T12:39:56.188Z,63.36
2022-08-16T12:42:34.535Z,62.71
2022-08-16T12:45:11.313Z,62.70
2022-08-16T12:48:29.404Z,61.35
2022-08-16T12:50:49.346Z,60.95
2022-08-16T12:53:20.634Z,60.19
2022-08-16T12:55:49.524Z,58.83
2022-08-16T12:58:47.431Z,58.20
2022-08-16T13:01:07.024Z,58.75
2022-08-16T13:03:40.542Z,58.47
2022-08-16T13:06:09.401Z,57.99
2022-08-16T13:08:41.358Z,57.23
2022-08-16T13:11:14.379Z,57.68
2022-08-16T13:13:45.536Z,57.99
2022-08-16T13:16:20.407Z,57.91
2022-08-16T13:18:54.583Z,57.34
2022-08-16T13:21:23.633Z,57.25
2022-08-16T13:23:55.522Z,58.10
2022-08-16T13:26:26.489Z,59.01
2022-08-16T13:28:54.965Z,59.27
2022-08-16T13:31:24.105Z,59.84
2022-08-16T13:33:54.545Z,59.69
2022-08-16T13:36:47.940Z,60.17
2022-08-16T13:39:15.303Z,60.81
2022-08-16T13:41:43.529Z,59.91
2022-08-16T13:44:21.762Z,58.97
2022-08-16T13:46:50.384Z,59.08
2022-08-16T13:49:18.678Z,59.99
2022-08-16T13:51:48.918Z,59.88
2022-08-16T13:56:46.053Z,60.94
2022-08-16T13:59:20.131Z,59.63
2022-08-16T14:02:05.349Z,58.98
2022-08-16T14:04:38.125Z,57.50
2022-08-16T14:07:11.474Z,57.75
2022-08-16T14:09:41.049Z,58.35
2022-08-16T14:12:23.261Z,58.70
2022-08-16T14:14:54.508Z,58.25
2022-08-16T14:17:25.545Z,58.65
2022-08-16T14:19:53.853Z,57.90
2022-08-16T14:22:35.761Z,57.36
2022-08-16T14:25:10.543Z,57.26
2022-08-16T14:27:42.171Z,56.58
2022-08-16T14:30:15.514Z,56.50
2022-08-16T14:32:49.726Z,56.39
2022-08-16T14:35:29.286Z,56.49
2022-08-16T14:38:05.783Z,56.17
2022-08-16T14:40:34.244Z,56.75
2022-08-16T14:43:07.106Z,57.15
2022-08-16T14:45:36.893Z,57.22
2022-08-16T14:48:04.977Z,57.32
2022-08-16T14:50:33.866Z,57.84
2022-08-16T14:53:06.175Z,56.69
2022-08-16T14:55:36.545Z,57.17
2022-08-16T14:58:05.520Z,57.50
2022-08-16T15:00:36.639Z,58.12
2022-08-16T15:03:09.943Z,57.92
2022-08-16T15:05:40.273Z,58.34
2022-08-16T15:08:10.459Z,58.30
2022-08-16T15:10:44.875Z,58.56
2022-08-16T15:13:14.995Z,57.51
2022-08-16T15:15:43.528Z,57.59
2022-08-16T15:18:13.893Z,58.38
2022-08-16T15:20:54.533Z,56.85
2022-08-16T15:23:25.094Z,57.08
2022-08-16T15:26:03.438Z,56.03
2022-08-16T15:28:33.016Z,54.83
2022-08-16T15:31:03.646Z,54.91
2022-08-16T15:33:35.111Z,55.92
2022-08-16T15:36:05.058Z,56.54
2022-08-16T15:39:03.765Z,55.27
2022-08-16T15:41:39.129Z,54.78
2022-08-16T15:44:15.296Z,54.55
2022-08-16T15:46:56.941Z,54.43
2022-08-16T15:49:37.027Z,54.53
2022-08-16T15:52:20.352Z,53.33
2022-08-16T15:54:55.340Z,53.19
2022-08-16T15:57:25.258Z,52.76
2022-08-16T15:59:56.400Z,53.23
2022-08-16T16:02:40.752Z,53.34
2022-08-16T16:05:10.385Z,54.05
2022-08-16T16:07:55.921Z,54.35
2022-08-16T16:10:29.407Z,54.43
2022-08-16T16:13:00.325Z,54.42
2022-08-16T16:15:33.438Z,54.91
2022-08-16T16:18:05.078Z,55.34
2022-08-16T16:20:39.787Z,55.39
2022-08-16T16:23:11.157Z,56.16
2022-08-16T16:25:43.875Z,56.17
2022-08-16T16:29:04.993Z,56.67
2022-08-16T16:31:06.315Z,57.17
2022-08-16T16:33:36.983Z,57.20
2022-08-16T16:36:07.713Z,57.75
2022-08-16T16:38:36.034Z,58.08
2022-08-16T16:41:10.274Z,58.68
2022-08-16T16:43:41.098Z,59.01
2022-08-16T16:46:32.725Z,58.78
2022-08-16T16:49:03.124Z,59.25
2022-08-16T16:51:40.399Z,57.91
2022-08-16T16:54:13.176Z,58.90
2022-08-16T16:56:49.834Z,59.13
2022-08-16T16:59:20.141Z,59.08
2022-08-16T17:02:00.377Z,59.80
2022-08-16T17:04:38.917Z,60.87
2022-08-16T17:07:10.657Z,61.31
2022-08-16T17:09:41.119Z,62.19
2022-08-16T17:12:14.581Z,62.83
2022-08-16T17:14:55.140Z,63.92
2022-08-16T17:17:23.861Z,64.53
2022-08-16T17:19:52.484Z,64.91
2022-08-16T17:22:24.055Z,65.53
2022-08-16T17:25:01.866Z,66.57
2022-08-16T17:27:32.884Z,66.79
2022-08-16T17:30:18.228Z,67.77
2022-08-16T17:32:50.518Z,68.05
2022-08-16T17:35:34.058Z,67.69
2022-08-16T17:38:07.063Z,68.12
2022-08-16T17:40:47.792Z,68.29
2022-08-16T17:43:44.420Z,68.92
2022-08-16T17:46:41.148Z,69.60
2022-08-16T17:49:03.861Z,69.52
2022-08-16T17:51:34.436Z,69.11
2022-08-16T17:54:03.881Z,69.84
2022-08-16T17:56:32.308Z,70.88
2022-08-16T17:59:01.209Z,71.81
2022-08-16T18:01:30.328Z,72.23
2022-08-16T18:04:07.206Z,72.58
2022-08-16T18:06:38.769Z,72.67
2022-08-16T18:09:09.394Z,73.14
2022-08-16T18:11:41.304Z,73.34
2022-08-16T18:14:12.161Z,72.09
2022-08-16T18:16:41.369Z,71.90
2022-08-16T18:19:11.060Z,72.58
2022-08-16T18:21:59.890Z,72.54
2022-08-16T18:24:28.290Z,73.71
2022-08-16T18:26:56.598Z,74.26
2022-08-16T18:29:45.148Z,74.95
2022-08-16T18:32:14.996Z,74.98
2022-08-16T18:34:50.203Z,75.71
2022-08-16T18:37:18.421Z,75.57
2022-08-16T18:39:46.434Z,76.21
2022-08-16T18:42:15.787Z,76.67
2022-08-16T18:44:44.997Z,77.23
2022-08-16T18:47:13.069Z,77.37
2022-08-16T18:49:40.865Z,77.24
2022-08-16T18:52:13.881Z,77.53
2022-08-16T18:55:01.750Z,77.56
2022-08-16T18:57:39.442Z,77.92
2022-08-16T19:00:11.552Z,78.29
2022-08-16T19:02:57.146Z,78.26
2022-08-16T19:05:31.093Z,78.56
2022-08-16T19:07:59.741Z,78.64
2022-08-16T19:10:28.768Z,79.19
2022-08-16T19:12:57.103Z,79.70
2022-08-16T19:15:28.797Z,79.77
2022-08-16T19:17:57.214Z,80.01
2022-08-16T19:20:27.571Z,80.42
2022-08-16T19:23:04.948Z,80.70
2022-08-16T19:25:47.351Z,80.62
2022-08-16T19:28:51.580Z,80.84
2022-08-16T19:31:24.928Z,81.18
2022-08-16T19:33:55.783Z,81.19
2022-08-16T19:36:36.746Z,81.56
2022-08-16T19:39:12.238Z,81.77
2022-08-16T19:41:43.974Z,81.92
2022-08-16T19:44:12.757Z,82.27
2022-08-16T19:46:46.533Z,82.43
2022-08-16T19:49:14.988Z,82.78
2022-08-16T19:51:48.723Z,83.01
2022-08-16T19:54:17.838Z,83.23
2022-08-16T19:56:45.810Z,83.94
2022-08-16T19:59:19.871Z,84.19
2022-08-16T20:01:51.997Z,84.99
2022-08-16T20:04:22.137Z,85.56
2022-08-16T20:06:52.571Z,86.28
2022-08-16T20:09:22.532Z,86.99
2022-08-16T20:11:52.367Z,87.48
2022-08-16T20:14:26.083Z,87.94
2022-08-16T20:16:56.119Z,88.47
2022-08-16T20:19:25.213Z,89.07
2022-08-16T20:21:53.775Z,89.92
2022-08-16T20:24:37.008Z,90.12
2022-08-16T20:27:07.673Z,90.57
2022-08-16T20:29:37.094Z,91.27
2022-08-16T20:32:07.543Z,91.84
2022-08-16T20:34:35.920Z,92.45
2022-08-16T20:37:06.442Z,92.84
2022-08-16T20:39:34.636Z,93.66
2022-08-16T20:42:02.866Z,94.36
2022-08-16T20:44:30.684Z,95.10
2022-08-16T20:46:58.731Z,95.81
2022-08-16T20:49:28.411Z,96.42
2022-08-16T20:51:59.544Z,97.01
2022-08-16T20:54:29.666Z,97.54
2022-08-16T20:56:57.870Z,98.20
2022-08-16T20:59:26.292Z,98.29
2022-08-16T21:01:54.948Z,99.21
2022-08-16T21:04:25.561Z,99.69
2022-08-16T21:06:55.095Z,100.00
2022-08-16T21:09:31.363Z,100.00
2022-08-16T21:12:02.237Z,100.00
2022-08-16T21:14:34.038Z,100.00
2022-08-16T21:17:08.436Z,100.00
2022-08-16T21:19:37.142Z,100.00
2022-08-16T21:22:24.815Z,100.00
2022-08-16T21:24:53.162Z,100.00
2022-08-16T21:27:22.445Z,100.00
2022-08-16T21:29:55.685Z,100.00
2022-08-16T21:32:35.131Z,100.00
2022-08-16T21:35:13.373Z,100.00
2022-08-16T21:37:42.483Z,100.00
2022-08-16T21:40:32.366Z,100.00
2022-08-16T21:43:10.094Z,100.00
2022-08-16T21:45:39.196Z,100.00
2022-08-16T21:48:07.906Z,100.00
2022-08-16T21:50:37.596Z,100.00
2022-08-16T21:53:11.076Z,100.00
2022-08-16T21:55:41.127Z,100.00
2022-08-16T21:58:09.498Z,100.00
2022-08-16T22:00:37.849Z,100.00
2022-08-16T22:03:09.904Z,100.00
2022-08-16T22:05:40.338Z,100.00
2022-08-16T22:08:08.775Z,100.00
2022-08-16T22:11:04.923Z,100.00
2022-08-16T22:13:27.177Z,100.00
2022-08-16T22:15:55.953Z,100.00
2022-08-16T22:18:24.809Z,100.00
2022-08-16T22:20:53.771Z,100.00
2022-08-16T22:23:24.281Z,100.00
2022-08-16T22:25:54.305Z,100.00
2022-08-16T22:28:23.890Z,100.00
2022-08-16T22:30:52.083Z,100.00
2022-08-16T22:33:26.389Z,100.00
2022-08-16T22:36:00.788Z,100.00
2022-08-16T22:38:56.363Z,100.00
2022-08-16T22:41:18.411Z,100.00
2022-08-16T22:43:50.229Z,100.00
2022-08-16T22:46:19.661Z,100.00
2022-08-16T22:48:50.675Z,100.00
2022-08-16T22:51:23.805Z,100.00
2022-08-16T22:53:52.801Z,100.00
2022-08-16T22:56:21.486Z,100.00
2022-08-16T22:58:49.270Z,100.00
2022-08-16T23:01:19.428Z,100.00
2022-08-16T23:03:47.853Z,100.00
2022-08-16T23:06:16.355Z,100.00
2022-08-16T23:08:44.886Z,100.00
2022-08-16T23:11:22.841Z,100.00
2022-08-16T23:13:54.396Z,100.00
2022-08-16T23:16:33.731Z,100.00
2022-08-16T23:19:09.183Z,100.00
2022-08-16T23:21:40.830Z,100.00
2022-08-16T23:24:09.456Z,100.00
2022-08-16T23:26:47.641Z,100.00
2022-08-16T23:29:24.313Z,100.00
2022-08-16T23:32:09.977Z,100.00
2022-08-16T23:34:38.363Z,100.00
2022-08-16T23:37:06.788Z,100.00
2022-08-16T23:39:35.883Z,100.00
2022-08-16T23:42:14.649Z,100.00
2022-08-16T23:44:57.684Z,100.00
2022-08-16T23:47:27.120Z,100.00
2022-08-16T23:50:01.062Z,100.00
2022-08-16T23:52:40.575Z,100.00
2022-08-16T23:55:19.717Z,100.00
2022-08-16T23:57:48.032Z,100.00
